Terminal Aerodrome Forecast
Issued by NWS

Home | Current Version | Previous Version | Text Only | Print | Product List | Glossary Off
Versions: 1 2 3 4 5 6 7 8 9 10 11 12 13 14

000
FTUS43 KMPX 210910 AAA
TAFRNH
TAF AMD
KRNH 210910Z 2109/2206 00000KT P6SM SKC
      TEMPO 2109/2112 1SM BR VV006
     FM211300 11005KT P6SM SKC
     FM211800 13010KT P6SM SKC
     FM212200 14009KT P6SM BKN035
     FM220200 15008KT P6SM SCT050=

USA.gov is the U.S. government's official web portal to all federal, state and local government web resources and services.